createdAt,value
2023-02-26T00:00:30.612Z,73.21
2023-02-26T00:03:00.218Z,72.64
2023-02-26T00:05:37.810Z,72.42
2023-02-26T00:08:07.444Z,71.33
2023-02-26T00:10:37.278Z,70.89
2023-02-26T00:13:07.112Z,70.98
2023-02-26T00:15:38.870Z,70.79
2023-02-26T00:18:17.029Z,71.11
2023-02-26T00:20:48.214Z,70.98
2023-02-26T00:23:26.956Z,70.58
2023-02-26T00:25:56.249Z,71.60
2023-02-26T00:28:27.121Z,71.43
2023-02-26T00:31:04.472Z,70.68
2023-02-26T00:33:34.658Z,70.67
2023-02-26T00:36:28.331Z,69.87
2023-02-26T00:39:13.042Z,69.31
2023-02-26T00:41:47.554Z,69.54
2023-02-26T00:44:26.601Z,69.82
2023-02-26T00:46:59.888Z,70.49
2023-02-26T00:49:42.248Z,69.01
2023-02-26T00:52:24.560Z,69.99
2023-02-26T00:54:59.531Z,68.74
2023-02-26T00:57:28.566Z,70.65
2023-02-26T01:00:05.093Z,69.68
2023-02-26T01:02:34.844Z,68.85
2023-02-26T01:05:13.860Z,68.60
2023-02-26T01:07:53.588Z,69.51
2023-02-26T01:10:27.459Z,69.56
2023-02-26T01:13:05.902Z,68.70
2023-02-26T01:15:43.840Z,69.03
2023-02-26T01:18:17.341Z,69.53
2023-02-26T01:20:54.114Z,68.47
2023-02-26T01:23:28.940Z,69.21
2023-02-26T01:26:00.896Z,68.74
2023-02-26T01:28:34.334Z,68.09
2023-02-26T01:31:07.188Z,68.19
2023-02-26T01:33:44.855Z,67.99
2023-02-26T01:36:24.405Z,68.09
2023-02-26T01:39:14.589Z,67.94
2023-02-26T01:41:48.473Z,67.03
2023-02-26T01:44:24.390Z,67.68
2023-02-26T01:47:06.077Z,68.00
2023-02-26T01:49:47.587Z,67.03
2023-02-26T01:53:08.880Z,68.90
2023-02-26T01:55:39.626Z,67.88
2023-02-26T01:58:07.770Z,67.48
2023-02-26T02:00:40.792Z,67.41
2023-02-26T02:03:11.601Z,66.54
2023-02-26T02:05:46.356Z,68.24
2023-02-26T02:08:22.280Z,67.79
2023-02-26T02:10:53.695Z,66.94
2023-02-26T02:13:39.520Z,66.91
2023-02-26T02:16:21.508Z,67.03
2023-02-26T02:18:57.570Z,67.37
2023-02-26T02:22:12.994Z,66.83
2023-02-26T02:24:54.439Z,67.31
2023-02-26T02:27:35.133Z,67.88
2023-02-26T02:30:18.481Z,68.13
2023-02-26T02:33:03.936Z,66.59
2023-02-26T02:35:39.827Z,67.43
2023-02-26T02:38:17.412Z,67.68
2023-02-26T02:40:59.280Z,67.58
2023-02-26T02:43:32.937Z,66.49
2023-02-26T02:46:07.501Z,67.60
2023-02-26T02:48:51.514Z,66.65
2023-02-26T02:51:26.773Z,66.77
2023-02-26T02:54:02.910Z,66.66
2023-02-26T02:56:41.547Z,66.63
2023-02-26T02:59:19.022Z,67.17
2023-02-26T03:01:51.986Z,66.86
2023-02-26T03:04:38.695Z,67.00
2023-02-26T03:07:18.761Z,67.66
2023-02-26T03:09:48.617Z,67.42
2023-02-26T03:12:23.977Z,67.49
2023-02-26T03:14:53.726Z,66.57
2023-02-26T03:17:30.024Z,67.51
2023-02-26T03:20:10.676Z,67.32
2023-02-26T03:22:43.964Z,67.11
2023-02-26T03:25:22.842Z,67.15
2023-02-26T03:27:56.258Z,66.68
2023-02-26T03:30:31.817Z,65.95
2023-02-26T03:33:05.486Z,66.14
2023-02-26T03:35:39.597Z,66.04
2023-02-26T03:38:15.133Z,66.05
2023-02-26T03:40:48.392Z,66.40
2023-02-26T03:43:21.433Z,65.96
2023-02-26T03:45:53.033Z,66.79
2023-02-26T03:48:32.525Z,66.85
2023-02-26T03:51:12.703Z,66.44
2023-02-26T03:54:10.282Z,66.85
2023-02-26T03:56:54.493Z,66.38
2023-02-26T03:59:45.873Z,66.96
2023-02-26T04:02:40.910Z,66.87
2023-02-26T04:05:26.989Z,66.18
2023-02-26T04:07:59.133Z,66.45
2023-02-26T04:10:40.444Z,66.22
2023-02-26T04:13:12.626Z,67.92
2023-02-26T04:15:49.205Z,66.58
2023-02-26T04:18:21.309Z,67.37
2023-02-26T04:20:53.702Z,68.15
2023-02-26T04:23:27.755Z,67.78
2023-02-26T04:25:59.966Z,68.50
2023-02-26T04:28:31.301Z,69.15
2023-02-26T04:31:04.703Z,68.50
2023-02-26T04:33:33.381Z,68.21
2023-02-26T04:36:05.446Z,67.74
2023-02-26T04:38:47.002Z,69.38
2023-02-26T04:41:15.256Z,69.22
2023-02-26T04:43:45.530Z,68.25
2023-02-26T04:46:36.644Z,69.01
2023-02-26T04:49:11.274Z,69.07
2023-02-26T04:51:44.985Z,70.12
2023-02-26T04:54:33.925Z,69.22
2023-02-26T04:57:04.953Z,70.21
2023-02-26T04:59:45.875Z,71.06
2023-02-26T05:02:15.928Z,72.16
2023-02-26T05:04:52.529Z,73.30
2023-02-26T05:07:23.646Z,74.12
2023-02-26T05:10:01.865Z,74.55
2023-02-26T05:12:36.229Z,75.44
2023-02-26T05:15:12.929Z,76.09
2023-02-26T05:17:49.757Z,76.18
2023-02-26T05:20:24.477Z,77.42
2023-02-26T05:22:55.583Z,77.35
2023-02-26T05:25:37.785Z,78.10
2023-02-26T05:28:06.519Z,79.22
2023-02-26T05:30:38.224Z,81.63
2023-02-26T05:33:13.400Z,81.48
2023-02-26T05:35:47.776Z,82.32
2023-02-26T05:38:18.834Z,82.55
2023-02-26T05:40:57.636Z,83.17
2023-02-26T05:43:30.609Z,84.78
2023-02-26T05:46:04.408Z,84.44
2023-02-26T05:48:33.412Z,85.72
2023-02-26T05:51:07.373Z,85.35
2023-02-26T05:53:41.012Z,85.32
2023-02-26T05:56:13.337Z,86.17
2023-02-26T05:58:47.004Z,85.90
2023-02-26T06:01:18.750Z,87.87
2023-02-26T06:03:48.584Z,87.91
2023-02-26T06:06:21.369Z,88.68
2023-02-26T06:08:58.373Z,89.31
2023-02-26T06:11:34.281Z,90.52
2023-02-26T06:17:10.303Z,90.34
2023-02-26T06:19:44.727Z,90.23
2023-02-26T06:22:16.229Z,89.06
2023-02-26T06:24:51.106Z,88.18
2023-02-26T06:27:32.447Z,89.16
2023-02-26T06:30:03.944Z,88.58
2023-02-26T06:32:39.003Z,89.07
2023-02-26T06:35:12.036Z,88.83
2023-02-26T06:37:43.025Z,89.03
2023-02-26T06:40:12.697Z,87.18
2023-02-26T06:42:50.807Z,87.48
2023-02-26T06:45:21.855Z,86.66
2023-02-26T06:48:00.231Z,86.62
2023-02-26T06:50:39.103Z,88.08
2023-02-26T06:53:13.069Z,86.68
2023-02-26T06:55:47.319Z,86.14
2023-02-26T06:58:18.664Z,86.69
2023-02-26T07:00:48.640Z,85.72
2023-02-26T07:03:22.212Z,85.38
2023-02-26T07:05:57.321Z,85.63
2023-02-26T07:08:31.402Z,84.85
2023-02-26T07:11:00.396Z,86.28
2023-02-26T07:13:31.385Z,85.87
2023-02-26T07:16:01.188Z,85.78
2023-02-26T07:18:49.067Z,86.41
2023-02-26T07:21:20.852Z,88.43
2023-02-26T07:23:53.188Z,86.68
2023-02-26T07:26:22.091Z,85.55
2023-02-26T07:28:56.603Z,86.45
2023-02-26T07:31:31.795Z,86.67
2023-02-26T07:34:02.008Z,86.25
2023-02-26T07:36:39.267Z,83.90
2023-02-26T07:39:08.927Z,85.00
2023-02-26T07:41:40.155Z,83.12
2023-02-26T07:44:19.439Z,82.27
2023-02-26T07:46:53.008Z,80.90
2023-02-26T07:49:28.488Z,81.33
2023-02-26T07:51:59.860Z,80.32
2023-02-26T07:54:31.547Z,79.59
2023-02-26T07:57:05.517Z,77.70
2023-02-26T07:59:40.828Z,77.52
2023-02-26T08:02:21.496Z,75.16
2023-02-26T08:04:55.632Z,76.40
2023-02-26T08:07:36.504Z,75.46
2023-02-26T08:10:08.963Z,76.20
2023-02-26T08:12:38.844Z,74.96
2023-02-26T08:15:18.017Z,73.72
2023-02-26T08:17:47.482Z,73.19
2023-02-26T08:20:19.160Z,72.79
2023-02-26T08:22:52.778Z,72.67
2023-02-26T08:25:29.933Z,72.88
2023-02-26T08:27:58.902Z,72.42
2023-02-26T08:30:32.389Z,71.08
2023-02-26T08:33:03.850Z,68.95
2023-02-26T08:35:35.197Z,69.12
2023-02-26T08:38:07.313Z,69.07
2023-02-26T08:40:38.023Z,67.25
2023-02-26T08:43:06.598Z,66.90
2023-02-26T08:45:39.090Z,66.77
2023-02-26T08:48:10.655Z,65.62
2023-02-26T08:50:41.542Z,65.48
2023-02-26T08:53:16.489Z,64.48
2023-02-26T08:55:54.991Z,64.50
2023-02-26T08:58:32.298Z,63.48
2023-02-26T09:01:06.006Z,63.43
2023-02-26T09:03:37.980Z,63.56
2023-02-26T09:06:08.940Z,62.83
2023-02-26T09:08:38.514Z,62.11
2023-02-26T09:11:07.541Z,62.00
2023-02-26T09:13:37.051Z,62.00
2023-02-26T09:16:08.972Z,61.73
2023-02-26T09:18:40.627Z,61.77
2023-02-26T09:21:12.291Z,61.54
2023-02-26T09:23:43.296Z,61.54
2023-02-26T09:26:25.147Z,61.13
2023-02-26T09:29:03.005Z,60.40
2023-02-26T09:31:37.033Z,59.39
2023-02-26T09:34:11.715Z,59.81
2023-02-26T09:36:48.645Z,60.44
2023-02-26T09:39:25.564Z,59.94
2023-02-26T09:42:01.099Z,60.15
2023-02-26T09:44:35.561Z,61.15
2023-02-26T09:47:17.136Z,60.68
2023-02-26T09:49:55.119Z,59.33
2023-02-26T09:52:27.462Z,59.15
2023-02-26T09:55:03.986Z,59.56
2023-02-26T09:57:41.754Z,59.55
2023-02-26T10:00:24.799Z,59.15
2023-02-26T10:03:17.943Z,59.54
2023-02-26T10:06:00.859Z,59.40
2023-02-26T10:08:34.827Z,58.02
2023-02-26T10:11:09.089Z,57.43
2023-02-26T10:13:56.658Z,55.60
2023-02-26T10:16:34.629Z,55.10
2023-02-26T10:19:22.498Z,55.34
2023-02-26T10:21:56.171Z,54.23
2023-02-26T10:24:32.449Z,53.81
2023-02-26T10:27:12.030Z,53.24
2023-02-26T10:29:47.572Z,52.71
2023-02-26T10:32:27.312Z,52.64
2023-02-26T10:35:10.906Z,52.51
2023-02-26T10:37:54.856Z,52.92
2023-02-26T10:40:29.647Z,52.76
2023-02-26T10:43:01.364Z,51.79
2023-02-26T10:45:47.252Z,51.76
2023-02-26T10:48:29.800Z,51.74
2023-02-26T10:51:14.483Z,51.07
2023-02-26T10:53:56.521Z,51.21
2023-02-26T10:56:30.026Z,50.71
2023-02-26T10:59:04.050Z,50.35
2023-02-26T11:01:42.032Z,50.82
2023-02-26T11:04:20.555Z,52.02
2023-02-26T11:07:07.222Z,51.71
2023-02-26T11:09:44.258Z,52.05
2023-02-26T11:12:26.168Z,52.47
2023-02-26T11:15:02.611Z,51.26
2023-02-26T11:17:34.026Z,50.47
2023-02-26T11:20:11.904Z,50.37
2023-02-26T11:22:54.170Z,50.76
2023-02-26T11:25:26.618Z,56.17
2023-02-26T11:28:02.447Z,60.83
2023-02-26T11:30:47.877Z,65.53
2023-02-26T11:33:20.727Z,69.58
2023-02-26T11:36:02.900Z,71.31
2023-02-26T11:38:52.266Z,71.63
2023-02-26T11:41:24.027Z,70.48
2023-02-26T11:44:04.399Z,68.81
2023-02-26T11:46:33.628Z,67.66
2023-02-26T11:49:04.137Z,64.85
2023-02-26T11:51:38.793Z,62.16
2023-02-26T11:54:27.270Z,61.80
2023-02-26T11:57:06.354Z,57.22
2023-02-26T12:00:00.804Z,57.53
2023-02-26T12:02:59.944Z,56.09
2023-02-26T12:05:30.143Z,56.93
2023-02-26T12:07:59.010Z,57.45
2023-02-26T12:10:47.460Z,56.73
2023-02-26T12:13:25.371Z,55.54
2023-02-26T12:16:03.947Z,58.25
2023-02-26T12:18:58.530Z,57.08
2023-02-26T12:22:17.749Z,56.87
2023-02-26T12:25:15.740Z,55.22
2023-02-26T12:28:15.704Z,52.95
2023-02-26T12:31:28.836Z,52.79
2023-02-26T12:34:33.733Z,52.35
2023-02-26T12:37:32.419Z,51.92
2023-02-26T12:40:24.080Z,52.63
2023-02-26T12:43:03.486Z,52.95
2023-02-26T12:45:58.946Z,53.71
2023-02-26T12:48:57.424Z,54.05
2023-02-26T12:51:42.126Z,53.67
2023-02-26T12:54:38.641Z,54.80
2023-02-26T12:57:56.807Z,56.15
2023-02-26T13:00:58.608Z,57.11
2023-02-26T13:04:06.902Z,56.95
2023-02-26T13:06:59.480Z,57.33
2023-02-26T13:09:40.218Z,56.18
2023-02-26T13:12:29.455Z,56.10
2023-02-26T13:15:11.396Z,54.92
2023-02-26T13:17:55.641Z,54.74
2023-02-26T13:20:32.086Z,54.90
2023-02-26T13:23:13.643Z,53.53
2023-02-26T13:25:57.746Z,53.33
2023-02-26T13:28:41.159Z,53.68
2023-02-26T13:31:20.795Z,53.07
2023-02-26T13:34:01.730Z,53.97
2023-02-26T13:36:49.770Z,53.44
2023-02-26T13:39:53.848Z,54.18
2023-02-26T13:42:38.514Z,54.83
2023-02-26T13:45:36.978Z,54.40
2023-02-26T13:48:22.130Z,53.69
2023-02-26T13:51:04.212Z,53.02
2023-02-26T13:53:59.364Z,53.32
2023-02-26T13:56:57.676Z,53.59
2023-02-26T13:59:38.801Z,52.80
2023-02-26T14:02:41.340Z,52.98
2023-02-26T14:05:40.420Z,51.13
2023-02-26T14:08:34.861Z,50.16
2023-02-26T14:11:46.158Z,49.92
2023-02-26T14:14:32.904Z,50.05
2023-02-26T14:17:32.882Z,49.25
2023-02-26T14:20:28.817Z,50.09
2023-02-26T14:23:32.356Z,56.35
2023-02-26T14:26:16.494Z,59.67
2023-02-26T14:29:00.308Z,61.03
2023-02-26T14:31:55.685Z,62.32
2023-02-26T14:34:36.042Z,64.07
2023-02-26T14:37:09.751Z,64.66
2023-02-26T14:39:48.926Z,64.78
2023-02-26T14:42:41.288Z,66.10
2023-02-26T14:45:38.011Z,65.12
2023-02-26T14:48:22.876Z,64.79
2023-02-26T14:51:13.717Z,63.41
2023-02-26T14:54:11.746Z,62.03
2023-02-26T14:57:01.004Z,61.96
2023-02-26T15:00:09.558Z,62.21
2023-02-26T15:02:50.873Z,61.28
2023-02-26T15:05:59.447Z,61.73
2023-02-26T15:08:52.790Z,62.53
2023-02-26T15:11:56.142Z,62.60
2023-02-26T15:15:06.351Z,62.88
2023-02-26T15:17:51.230Z,62.38
2023-02-26T15:20:29.305Z,60.40
2023-02-26T15:23:39.087Z,58.54
2023-02-26T15:26:18.619Z,57.32
2023-02-26T15:28:49.512Z,57.07
2023-02-26T15:31:40.689Z,55.73
2023-02-26T15:34:15.692Z,55.68
2023-02-26T15:36:53.253Z,55.81
2023-02-26T15:39:29.248Z,55.36
2023-02-26T15:41:59.679Z,55.55
2023-02-26T15:44:33.480Z,56.07
2023-02-26T15:47:30.793Z,55.58
2023-02-26T15:50:03.050Z,55.48
2023-02-26T15:52:44.690Z,56.51
2023-02-26T15:55:20.181Z,56.27
2023-02-26T15:57:56.237Z,55.98
2023-02-26T16:00:28.525Z,55.78
2023-02-26T16:03:05.693Z,55.17
2023-02-26T16:05:37.983Z,55.26
2023-02-26T16:08:19.955Z,55.75
2023-02-26T16:10:50.693Z,55.62
2023-02-26T16:13:32.114Z,56.01
2023-02-26T16:16:08.651Z,56.35
2023-02-26T16:18:48.198Z,56.18
2023-02-26T16:21:25.335Z,57.08
2023-02-26T16:23:59.021Z,57.80
2023-02-26T16:26:39.902Z,57.95
2023-02-26T16:29:21.367Z,57.65
2023-02-26T16:31:58.278Z,58.43
2023-02-26T16:34:58.051Z,59.17
2023-02-26T16:37:38.228Z,59.25
2023-02-26T16:40:26.418Z,57.98
2023-02-26T16:43:08.768Z,57.32
2023-02-26T16:45:51.417Z,57.09
2023-02-26T16:48:28.907Z,56.81
2023-02-26T16:51:21.796Z,55.96
2023-02-26T16:54:06.894Z,56.00
2023-02-26T16:56:42.221Z,56.18
2023-02-26T16:59:35.281Z,56.58
2023-02-26T17:02:14.522Z,56.15
2023-02-26T17:04:53.880Z,55.35
2023-02-26T17:08:00.828Z,55.79
2023-02-26T17:10:41.257Z,55.31
2023-02-26T17:13:20.331Z,54.71
2023-02-26T17:15:57.942Z,54.74
2023-02-26T17:18:33.052Z,54.41
2023-02-26T17:21:10.571Z,54.39
2023-02-26T17:23:47.276Z,54.52
2023-02-26T17:26:20.244Z,53.71
2023-02-26T17:28:57.342Z,53.95
2023-02-26T17:31:32.919Z,52.78
2023-02-26T17:34:11.452Z,53.29
2023-02-26T17:37:00.403Z,53.62
2023-02-26T17:39:54.004Z,52.72
2023-02-26T17:42:28.334Z,53.14
2023-02-26T17:45:13.822Z,52.56
2023-02-26T17:47:50.671Z,53.53
2023-02-26T17:50:31.090Z,53.22
2023-02-26T17:53:14.713Z,53.03
2023-02-26T17:56:03.107Z,53.28
2023-02-26T17:58:35.285Z,52.95
2023-02-26T18:01:20.117Z,53.82
2023-02-26T18:04:02.055Z,53.91
2023-02-26T18:06:39.335Z,53.87
2023-02-26T18:12:21.320Z,54.03
2023-02-26T18:14:58.568Z,54.41
2023-02-26T18:17:34.321Z,55.16
2023-02-26T18:20:14.630Z,55.22
2023-02-26T18:22:56.975Z,55.45
2023-02-26T18:25:34.210Z,55.44
2023-02-26T18:28:17.573Z,55.00
2023-02-26T18:31:02.727Z,55.12
2023-02-26T18:33:47.961Z,55.62
2023-02-26T18:36:35.245Z,56.03
2023-02-26T18:39:13.487Z,56.19
2023-02-26T18:41:44.829Z,56.53
2023-02-26T18:44:20.439Z,56.26
2023-02-26T18:46:52.938Z,57.73
2023-02-26T18:49:30.004Z,58.11
2023-02-26T18:52:00.796Z,57.86
2023-02-26T18:54:32.447Z,58.06
2023-02-26T18:57:09.727Z,58.50
2023-02-26T18:59:45.903Z,58.22
2023-02-26T19:02:22.774Z,58.73
2023-02-26T19:04:55.818Z,58.89
2023-02-26T19:07:34.948Z,58.30
2023-02-26T19:10:12.012Z,58.58
2023-02-26T19:12:53.888Z,58.17
2023-02-26T19:16:00.113Z,57.88
2023-02-26T19:18:31.230Z,58.11
2023-02-26T19:21:12.201Z,57.90
2023-02-26T19:23:45.270Z,58.66
2023-02-26T19:26:24.933Z,58.54
2023-02-26T19:28:55.475Z,58.57
2023-02-26T19:31:33.596Z,58.58
2023-02-26T19:34:05.528Z,58.61
2023-02-26T19:36:48.403Z,58.95
2023-02-26T19:39:24.586Z,59.54
2023-02-26T19:42:13.147Z,59.28
2023-02-26T19:44:48.705Z,59.81
2023-02-26T19:47:31.167Z,60.25
2023-02-26T19:50:08.434Z,59.48
2023-02-26T19:53:11.261Z,59.47
2023-02-26T19:55:54.005Z,59.27
2023-02-26T19:58:36.840Z,59.15
2023-02-26T20:01:17.265Z,58.50
2023-02-26T20:04:09.658Z,59.64
2023-02-26T20:06:54.693Z,59.60
2023-02-26T20:09:33.037Z,60.48
2023-02-26T20:12:09.200Z,60.31
2023-02-26T20:14:46.806Z,60.24
2023-02-26T20:17:30.164Z,59.99
2023-02-26T20:20:10.431Z,59.39
2023-02-26T20:22:54.234Z,59.54
2023-02-26T20:25:26.174Z,59.61
2023-02-26T20:28:10.592Z,59.81
2023-02-26T20:30:43.510Z,59.18
2023-02-26T20:33:17.432Z,59.42
2023-02-26T20:36:06.473Z,59.78
2023-02-26T20:38:50.705Z,59.61
2023-02-26T20:41:31.921Z,59.57
2023-02-26T20:44:13.950Z,58.48
2023-02-26T20:46:59.096Z,58.92
2023-02-26T20:49:37.194Z,59.23
2023-02-26T20:52:21.964Z,58.96
2023-02-26T20:55:04.636Z,59.85
2023-02-26T20:57:44.735Z,59.35
2023-02-26T21:00:17.443Z,58.97
2023-02-26T21:02:59.601Z,59.20
2023-02-26T21:05:39.399Z,58.51
2023-02-26T21:08:14.712Z,58.75
2023-02-26T21:10:44.337Z,58.57
2023-02-26T21:13:22.539Z,58.85
2023-02-26T21:15:54.219Z,58.60
2023-02-26T21:18:37.219Z,59.38
2023-02-26T21:21:19.565Z,59.00
2023-02-26T21:24:08.609Z,58.51
2023-02-26T21:26:43.825Z,59.56
2023-02-26T21:29:13.205Z,59.77
2023-02-26T21:31:44.003Z,59.54
2023-02-26T21:34:33.220Z,59.80
2023-02-26T21:37:17.930Z,59.11
2023-02-26T21:39:54.336Z,59.56
2023-02-26T21:42:28.427Z,59.31
2023-02-26T21:45:11.334Z,59.65
2023-02-26T21:47:53.329Z,59.10
2023-02-26T21:50:26.375Z,60.50
2023-02-26T21:53:02.271Z,60.24
2023-02-26T21:55:43.848Z,60.30
2023-02-26T21:58:21.256Z,60.67
2023-02-26T22:00:57.229Z,61.14
2023-02-26T22:03:30.036Z,61.10
2023-02-26T22:06:10.962Z,61.34
2023-02-26T22:08:41.888Z,61.50
2023-02-26T22:11:16.883Z,61.02
2023-02-26T22:13:48.829Z,61.49
2023-02-26T22:16:19.993Z,62.49
2023-02-26T22:18:57.304Z,62.82
2023-02-26T22:21:30.724Z,61.99
2023-02-26T22:24:03.924Z,62.09
2023-02-26T22:26:47.126Z,62.71
2023-02-26T22:29:29.144Z,61.71
2023-02-26T22:32:01.546Z,62.40
2023-02-26T22:35:01.155Z,61.93
2023-02-26T22:37:33.043Z,62.35
2023-02-26T22:40:01.763Z,62.96
2023-02-26T22:42:35.966Z,62.62
2023-02-26T22:45:17.289Z,63.31
2023-02-26T22:47:48.306Z,63.28
2023-02-26T22:50:24.444Z,63.65
2023-02-26T22:52:55.137Z,63.08
2023-02-26T22:55:24.147Z,62.88
2023-02-26T22:58:05.301Z,63.04
2023-02-26T23:00:36.322Z,62.74
2023-02-26T23:03:06.067Z,62.55
2023-02-26T23:05:45.723Z,63.80
2023-02-26T23:08:23.037Z,62.95
2023-02-26T23:10:58.890Z,62.71
2023-02-26T23:13:34.340Z,62.76
2023-02-26T23:16:07.334Z,62.91
2023-02-26T23:18:38.072Z,63.37
2023-02-26T23:21:07.979Z,63.29
2023-02-26T23:23:42.451Z,62.96
2023-02-26T23:26:18.497Z,63.16
2023-02-26T23:28:54.095Z,62.98
2023-02-26T23:31:22.692Z,62.62
2023-02-26T23:33:56.848Z,62.65
2023-02-26T23:36:28.415Z,63.22
2023-02-26T23:38:57.693Z,64.08
2023-02-26T23:41:39.282Z,63.60
2023-02-26T23:44:28.336Z,63.59
2023-02-26T23:47:05.280Z,64.39
2023-02-26T23:49:46.279Z,64.13
2023-02-26T23:52:18.509Z,64.27
2023-02-26T23:55:05.198Z,64.34
2023-02-26T23:57:34.844Z,65.07
